createdAt,value
2018-05-31T00:00:52.926Z,21.10
2018-05-31T00:03:21.161Z,21.20
2018-05-31T00:05:49.406Z,21.20
2018-05-31T00:08:16.854Z,21.10
2018-05-31T00:10:44.338Z,21.20
2018-05-31T00:13:11.795Z,21.20
2018-05-31T00:15:39.276Z,21.10
2018-05-31T00:18:06.819Z,21.10
2018-05-31T00:20:34.292Z,21.10
2018-05-31T00:23:01.841Z,21.10
2018-05-31T00:25:29.406Z,21.00
2018-05-31T00:27:56.872Z,21.00
2018-05-31T00:30:24.333Z,21.00
2018-05-31T00:32:51.797Z,21.00
2018-05-31T00:35:19.261Z,21.00
2018-05-31T00:37:46.734Z,21.00
2018-05-31T00:40:14.208Z,21.00
2018-05-31T00:42:41.646Z,21.00
2018-05-31T00:45:09.110Z,20.90
2018-05-31T00:47:36.572Z,20.90
2018-05-31T00:50:04.021Z,20.90
2018-05-31T00:52:31.510Z,20.90
2018-05-31T00:54:58.957Z,20.80
2018-05-31T00:57:26.522Z,20.70
2018-05-31T00:59:53.974Z,20.70
2018-05-31T01:02:21.422Z,20.70
2018-05-31T01:04:48.914Z,20.70
2018-05-31T01:07:16.356Z,20.80
2018-05-31T01:09:43.818Z,20.80
2018-05-31T01:12:11.272Z,20.70
2018-05-31T01:14:38.762Z,20.70
2018-05-31T01:17:06.227Z,20.70
2018-05-31T01:19:33.694Z,20.70
2018-05-31T01:22:01.151Z,20.70
2018-05-31T01:24:28.713Z,20.70
2018-05-31T01:26:56.273Z,20.60
2018-05-31T01:29:24.375Z,20.60
2018-05-31T01:31:51.833Z,20.50
2018-05-31T01:34:19.289Z,20.40
2018-05-31T01:36:46.753Z,20.40
2018-05-31T01:39:17.131Z,20.40
2018-05-31T01:41:44.589Z,20.30
2018-05-31T01:44:12.062Z,20.30
2018-05-31T01:46:39.553Z,20.20
2018-05-31T01:49:06.991Z,20.20
2018-05-31T01:51:34.505Z,20.20
2018-05-31T01:54:01.974Z,20.20
2018-05-31T01:56:30.241Z,20.10
2018-05-31T01:58:57.690Z,20.10
2018-05-31T02:01:25.154Z,20.00
2018-05-31T02:03:52.622Z,19.90
2018-05-31T02:06:20.078Z,19.90
2018-05-31T02:08:47.649Z,19.90
2018-05-31T02:11:15.097Z,19.90
2018-05-31T02:13:42.677Z,19.80
2018-05-31T02:16:10.117Z,19.80
2018-05-31T02:18:37.563Z,19.70
2018-05-31T02:21:05.060Z,19.70
2018-05-31T02:23:32.530Z,19.70
2018-05-31T02:26:00.087Z,19.70
2018-05-31T02:28:27.548Z,19.60
2018-05-31T02:30:54.991Z,19.70
2018-05-31T02:33:22.467Z,19.60
2018-05-31T02:35:49.930Z,19.60
2018-05-31T02:38:17.395Z,19.60
2018-05-31T02:40:44.850Z,19.60
2018-05-31T02:43:12.421Z,19.50
2018-05-31T02:45:39.885Z,19.50
2018-05-31T02:48:07.360Z,19.40
2018-05-31T02:50:34.806Z,19.40
2018-05-31T02:53:02.263Z,19.40
2018-05-31T02:55:29.739Z,19.40
2018-05-31T02:57:57.521Z,19.30
2018-05-31T03:00:25.783Z,19.30
2018-05-31T03:02:53.225Z,19.30
2018-05-31T03:05:20.693Z,19.30
2018-05-31T03:07:48.233Z,19.30
2018-05-31T03:10:15.674Z,19.30
2018-05-31T03:12:43.099Z,19.20
2018-05-31T03:15:10.566Z,19.20
2018-05-31T03:17:38.131Z,19.20
2018-05-31T03:20:05.587Z,19.20
2018-05-31T03:22:33.045Z,19.20
2018-05-31T03:25:00.512Z,19.20
2018-05-31T03:27:27.954Z,19.20
2018-05-31T03:29:55.422Z,19.20
2018-05-31T03:32:22.901Z,19.20
2018-05-31T03:34:50.359Z,19.20
2018-05-31T03:37:17.838Z,19.20
2018-05-31T03:39:45.293Z,19.10
2018-05-31T03:42:12.754Z,19.10
2018-05-31T03:44:40.222Z,19.10
2018-05-31T03:47:07.671Z,19.20
2018-05-31T03:49:35.112Z,19.10
2018-05-31T03:52:02.586Z,19.10
2018-05-31T03:54:30.041Z,19.00
2018-05-31T03:56:57.501Z,19.00
2018-05-31T03:59:24.962Z,19.10
2018-05-31T04:01:52.410Z,19.10
2018-05-31T04:04:19.888Z,19.10
2018-05-31T04:06:47.341Z,19.00
2018-05-31T04:09:14.811Z,19.00
2018-05-31T04:11:42.303Z,19.00
2018-05-31T04:14:09.766Z,19.10
2018-05-31T04:16:37.229Z,19.10
2018-05-31T04:19:04.679Z,19.10
2018-05-31T04:21:32.259Z,19.20
2018-05-31T04:23:59.697Z,19.20
2018-05-31T04:26:27.170Z,19.20
2018-05-31T04:28:54.647Z,19.20
2018-05-31T04:31:22.204Z,19.10
2018-05-31T04:33:49.666Z,19.20
2018-05-31T04:36:17.106Z,19.20
2018-05-31T04:38:44.577Z,19.20
2018-05-31T04:41:12.054Z,19.20
2018-05-31T04:43:39.510Z,19.20
2018-05-31T04:46:06.980Z,19.20
2018-05-31T04:48:34.450Z,19.20
2018-05-31T04:51:02.006Z,19.20
2018-05-31T04:53:29.496Z,19.20
2018-05-31T04:55:56.914Z,19.20
2018-05-31T04:58:24.377Z,19.30
2018-05-31T05:00:51.830Z,19.30
2018-05-31T05:03:19.327Z,19.30
2018-05-31T05:05:46.769Z,19.30
2018-05-31T05:08:14.233Z,19.20
2018-05-31T05:10:41.707Z,19.30
2018-05-31T05:13:09.169Z,19.30
2018-05-31T05:15:36.640Z,19.40
2018-05-31T05:18:04.086Z,19.40
2018-05-31T05:20:31.554Z,19.40
2018-05-31T05:22:59.028Z,19.50
2018-05-31T05:25:26.491Z,19.50
2018-05-31T05:27:53.930Z,19.50
2018-05-31T05:30:21.403Z,19.50
2018-05-31T05:32:48.868Z,19.50
2018-05-31T05:35:16.431Z,19.50
2018-05-31T05:37:43.999Z,19.60
2018-05-31T05:40:11.469Z,19.70
2018-05-31T05:42:38.947Z,19.70
2018-05-31T05:45:06.487Z,19.80
2018-05-31T05:47:33.951Z,19.80
2018-05-31T05:50:01.401Z,19.90
2018-05-31T05:52:28.870Z,19.90
2018-05-31T05:54:56.337Z,19.90
2018-05-31T05:57:23.898Z,20.00
2018-05-31T05:59:51.351Z,20.10
2018-05-31T06:02:18.834Z,20.20
2018-05-31T06:04:46.390Z,20.20
2018-05-31T06:07:13.838Z,20.20
2018-05-31T06:09:41.307Z,20.30
2018-05-31T06:12:08.777Z,20.30
2018-05-31T06:14:36.241Z,20.30
2018-05-31T06:17:03.811Z,20.40
2018-05-31T06:19:31.283Z,20.40
2018-05-31T06:21:58.802Z,20.40
2018-05-31T06:24:26.223Z,20.40
2018-05-31T06:26:53.658Z,20.40
2018-05-31T06:29:21.114Z,20.40
2018-05-31T06:31:48.694Z,20.50
2018-05-31T06:34:16.163Z,20.50
2018-05-31T06:36:43.719Z,20.60
2018-05-31T06:39:11.170Z,20.60
2018-05-31T06:41:38.629Z,20.70
2018-05-31T06:44:06.083Z,20.80
2018-05-31T06:46:33.550Z,20.90
2018-05-31T06:49:01.032Z,21.10
2018-05-31T06:51:28.583Z,21.20
2018-05-31T06:53:56.143Z,21.10
2018-05-31T06:56:23.607Z,21.20
2018-05-31T06:58:51.045Z,21.20
2018-05-31T07:01:18.526Z,21.30
2018-05-31T07:03:45.962Z,21.40
2018-05-31T07:06:13.461Z,21.40
2018-05-31T07:08:40.941Z,21.40
2018-05-31T07:11:08.412Z,21.50
2018-05-31T07:13:35.854Z,21.50
2018-05-31T07:16:03.321Z,21.60
2018-05-31T07:18:30.794Z,21.70
2018-05-31T07:20:58.264Z,21.80
2018-05-31T07:23:25.710Z,21.90
2018-05-31T07:25:53.262Z,22.00
2018-05-31T07:28:20.742Z,22.10
2018-05-31T07:30:48.204Z,22.20
2018-05-31T07:33:15.757Z,22.30
2018-05-31T07:35:43.309Z,22.40
2018-05-31T07:38:10.781Z,22.40
2018-05-31T07:40:38.297Z,22.40
2018-05-31T07:43:06.525Z,22.60
2018-05-31T07:45:34.005Z,22.50
2018-05-31T07:48:01.445Z,22.70
2018-05-31T07:50:28.914Z,22.80
2018-05-31T07:52:56.376Z,22.80
2018-05-31T07:55:23.815Z,22.90
2018-05-31T07:57:51.278Z,22.90
2018-05-31T08:00:18.770Z,23.00
2018-05-31T08:02:46.334Z,23.10
2018-05-31T08:05:13.889Z,23.20
2018-05-31T08:07:41.342Z,23.30
2018-05-31T08:10:08.806Z,23.20
2018-05-31T08:12:36.268Z,23.10
2018-05-31T08:15:03.853Z,23.30
2018-05-31T08:17:31.335Z,23.30
2018-05-31T08:19:58.782Z,23.50
2018-05-31T08:22:26.230Z,23.50
2018-05-31T08:24:53.694Z,23.60
2018-05-31T08:27:21.142Z,23.70
2018-05-31T08:29:48.638Z,23.80
2018-05-31T08:32:16.086Z,23.90
2018-05-31T08:34:43.557Z,24.00
2018-05-31T08:37:11.114Z,24.10
2018-05-31T08:39:38.574Z,24.10
2018-05-31T08:42:06.139Z,24.10
2018-05-31T08:44:33.608Z,24.10
2018-05-31T08:47:01.171Z,24.30
2018-05-31T08:49:28.633Z,24.40
2018-05-31T08:51:56.098Z,24.50
2018-05-31T08:54:23.557Z,24.60
2018-05-31T08:56:51.118Z,24.70
2018-05-31T08:59:18.590Z,24.80
2018-05-31T09:01:46.040Z,24.80
2018-05-31T09:04:14.326Z,24.90
2018-05-31T09:06:41.770Z,24.90
2018-05-31T09:09:09.250Z,25.00
2018-05-31T09:11:36.705Z,25.10
2018-05-31T09:14:04.174Z,25.10
2018-05-31T09:16:31.738Z,25.10
2018-05-31T09:18:59.183Z,24.90
2018-05-31T09:21:27.390Z,24.90
2018-05-31T09:23:54.838Z,24.90
2018-05-31T09:26:22.410Z,25.10
2018-05-31T09:28:49.891Z,25.30
2018-05-31T09:31:17.330Z,25.30
2018-05-31T09:33:44.793Z,25.50
2018-05-31T09:36:12.238Z,25.60
2018-05-31T09:38:39.699Z,25.60
2018-05-31T09:41:07.234Z,25.70
2018-05-31T09:43:34.644Z,25.80
2018-05-31T09:46:02.086Z,25.90
2018-05-31T09:48:29.533Z,26.00
2018-05-31T09:50:56.999Z,26.10
2018-05-31T09:53:24.470Z,26.20
2018-05-31T09:55:52.497Z,26.30
2018-05-31T09:58:19.961Z,26.20
2018-05-31T10:00:47.416Z,26.10
2018-05-31T10:03:14.874Z,26.10
2018-05-31T10:05:42.343Z,26.20
2018-05-31T10:08:09.877Z,26.40
2018-05-31T10:10:37.345Z,26.40
2018-05-31T10:13:04.807Z,26.40
2018-05-31T10:15:32.258Z,26.50
2018-05-31T10:17:59.730Z,26.60
2018-05-31T10:20:27.497Z,26.70
2018-05-31T10:22:54.950Z,26.70
2018-05-31T10:25:22.425Z,26.90
2018-05-31T10:27:49.878Z,26.90
2018-05-31T10:30:17.352Z,26.90
2018-05-31T10:32:44.801Z,27.00
2018-05-31T10:35:12.289Z,27.10
2018-05-31T10:37:39.758Z,27.10
2018-05-31T10:40:07.206Z,27.20
2018-05-31T10:42:34.766Z,27.20
2018-05-31T10:45:02.230Z,27.20
2018-05-31T10:47:29.675Z,27.30
2018-05-31T10:49:57.135Z,27.50
2018-05-31T10:52:24.610Z,27.70
2018-05-31T10:54:52.083Z,27.60
2018-05-31T10:57:19.539Z,27.50
2018-05-31T10:59:47.110Z,27.40
2018-05-31T11:02:14.554Z,27.50
2018-05-31T11:04:42.062Z,27.40
2018-05-31T11:07:09.478Z,27.50
2018-05-31T11:09:36.934Z,27.50
2018-05-31T11:12:04.417Z,27.70
2018-05-31T11:14:31.892Z,27.70
2018-05-31T11:16:59.354Z,27.80
2018-05-31T11:19:26.909Z,27.80
2018-05-31T11:21:54.363Z,27.80
2018-05-31T11:24:21.838Z,27.90
2018-05-31T11:26:49.306Z,27.90
2018-05-31T11:29:16.794Z,28.10
2018-05-31T11:31:44.198Z,28.20
2018-05-31T11:34:11.674Z,28.30
2018-05-31T11:36:39.147Z,28.40
2018-05-31T11:39:06.614Z,28.70
2018-05-31T11:41:34.100Z,28.90
2018-05-31T11:44:01.558Z,29.00
2018-05-31T11:46:28.997Z,29.00
2018-05-31T11:48:56.446Z,28.80
2018-05-31T11:51:24.686Z,28.60
2018-05-31T11:53:52.890Z,28.50
2018-05-31T11:56:20.390Z,28.50
2018-05-31T11:58:47.854Z,28.40
2018-05-31T12:01:15.316Z,28.30
2018-05-31T12:03:42.820Z,28.10
2018-05-31T12:06:10.237Z,28.00
2018-05-31T12:08:37.703Z,27.90
2018-05-31T12:11:05.162Z,27.80
2018-05-31T12:13:32.661Z,27.70
2018-05-31T12:16:00.894Z,27.60
2018-05-31T12:18:28.339Z,27.50
2018-05-31T12:20:55.805Z,27.50
2018-05-31T12:23:23.259Z,27.40
2018-05-31T12:25:50.730Z,27.40
2018-05-31T12:28:18.182Z,27.30
2018-05-31T12:30:45.623Z,27.20
2018-05-31T12:33:13.950Z,27.00
2018-05-31T12:35:41.401Z,27.00
2018-05-31T12:38:08.877Z,26.90
2018-05-31T12:40:36.350Z,26.90
2018-05-31T12:43:03.810Z,26.80
2018-05-31T12:45:31.262Z,26.70
2018-05-31T12:47:58.720Z,26.70
2018-05-31T12:50:26.186Z,26.50
2018-05-31T12:52:53.687Z,26.40
2018-05-31T12:55:21.104Z,26.20
2018-05-31T12:57:48.580Z,26.10
2018-05-31T13:00:16.042Z,26.00
2018-05-31T13:02:43.502Z,25.90
2018-05-31T13:05:10.963Z,25.80
2018-05-31T13:07:38.434Z,25.70
2018-05-31T13:10:08.353Z,25.40
2018-05-31T13:12:35.814Z,25.40
2018-05-31T13:15:03.276Z,25.30
2018-05-31T13:17:30.713Z,25.20
2018-05-31T13:19:58.181Z,25.10
2018-05-31T13:22:25.763Z,24.90
2018-05-31T13:24:53.198Z,24.70
2018-05-31T13:27:20.647Z,24.60
2018-05-31T13:29:48.144Z,24.50
2018-05-31T13:32:15.616Z,24.40
2018-05-31T13:34:43.079Z,24.30
2018-05-31T13:37:10.638Z,24.20
2018-05-31T13:39:38.077Z,24.10
2018-05-31T13:42:05.566Z,24.00
2018-05-31T13:44:33.027Z,23.90
2018-05-31T13:47:00.491Z,23.90
2018-05-31T13:49:27.962Z,23.80
2018-05-31T13:51:55.425Z,23.80
2018-05-31T13:54:22.980Z,23.80
2018-05-31T13:56:50.426Z,23.70
2018-05-31T13:59:18.212Z,23.70
2018-05-31T14:01:45.653Z,23.70
2018-05-31T14:04:13.117Z,23.70
2018-05-31T14:06:40.572Z,23.70
2018-05-31T14:09:08.040Z,23.70
2018-05-31T14:11:35.510Z,23.70
2018-05-31T14:14:02.959Z,23.70
2018-05-31T14:16:30.418Z,23.70
2018-05-31T14:18:57.859Z,23.80
2018-05-31T14:21:26.085Z,23.80
2018-05-31T14:23:53.526Z,23.80
2018-05-31T14:26:20.998Z,23.80
2018-05-31T14:28:48.478Z,23.80
2018-05-31T14:31:15.958Z,23.70
2018-05-31T14:33:43.402Z,23.70
2018-05-31T14:36:10.971Z,23.70
2018-05-31T14:38:38.430Z,23.70
2018-05-31T14:41:05.891Z,23.80
2018-05-31T14:43:33.453Z,23.80
2018-05-31T14:46:00.916Z,23.80
2018-05-31T14:48:28.408Z,23.80
2018-05-31T14:50:55.851Z,23.80
2018-05-31T14:53:23.316Z,23.80
2018-05-31T14:55:50.791Z,23.80
2018-05-31T14:58:19.745Z,23.90
2018-05-31T15:00:47.215Z,23.90
2018-05-31T15:03:14.679Z,24.00
2018-05-31T15:05:42.132Z,24.10
2018-05-31T15:08:09.605Z,24.20
2018-05-31T15:10:37.072Z,24.30
2018-05-31T15:13:04.511Z,24.20
2018-05-31T15:15:31.986Z,24.20
2018-05-31T15:17:59.442Z,24.10
2018-05-31T15:20:26.927Z,24.10
2018-05-31T15:22:54.404Z,24.00
2018-05-31T15:25:21.841Z,24.10
2018-05-31T15:27:49.306Z,24.10
2018-05-31T15:30:16.770Z,24.10
2018-05-31T15:32:44.210Z,24.20
2018-05-31T15:35:11.703Z,24.30
2018-05-31T15:37:39.149Z,24.40
2018-05-31T15:40:06.634Z,24.40
2018-05-31T15:42:34.095Z,24.40
2018-05-31T15:45:01.617Z,24.50
2018-05-31T15:47:29.153Z,24.50
2018-05-31T15:49:56.602Z,24.50
2018-05-31T15:52:24.146Z,24.50
2018-05-31T15:54:51.591Z,24.50
2018-05-31T15:57:19.050Z,24.50
2018-05-31T15:59:46.539Z,24.50
2018-05-31T16:02:13.996Z,24.50
2018-05-31T16:04:41.438Z,24.50
2018-05-31T16:07:08.918Z,24.50
2018-05-31T16:09:36.388Z,24.50
2018-05-31T16:12:03.838Z,24.50
2018-05-31T16:14:31.402Z,24.50
2018-05-31T16:16:58.967Z,24.50
2018-05-31T16:19:26.406Z,24.50
2018-05-31T16:21:53.906Z,24.40
2018-05-31T16:24:21.373Z,24.50
2018-05-31T16:26:48.831Z,24.50
2018-05-31T16:29:16.385Z,24.50
2018-05-31T16:31:43.821Z,24.40
2018-05-31T16:34:11.284Z,24.40
2018-05-31T16:36:38.746Z,24.40
2018-05-31T16:39:06.201Z,24.40
2018-05-31T16:41:33.650Z,24.40
2018-05-31T16:44:01.884Z,24.40
2018-05-31T16:46:29.346Z,24.40
2018-05-31T16:48:56.814Z,24.40
2018-05-31T16:51:24.262Z,24.40
2018-05-31T16:53:51.722Z,24.40
2018-05-31T16:56:19.202Z,24.40
2018-05-31T16:58:46.749Z,24.40
2018-05-31T17:01:14.193Z,24.40
2018-05-31T17:03:41.727Z,24.30
2018-05-31T17:06:09.933Z,24.30
2018-05-31T17:08:37.405Z,24.20
2018-05-31T17:11:04.850Z,24.30
2018-05-31T17:13:32.316Z,24.20
2018-05-31T17:15:59.787Z,24.20
2018-05-31T17:18:27.246Z,24.20
2018-05-31T17:20:54.711Z,24.20
2018-05-31T17:23:22.198Z,24.10
2018-05-31T17:25:49.662Z,24.10
2018-05-31T17:28:17.121Z,24.10
2018-05-31T17:30:44.587Z,24.10
2018-05-31T17:33:12.053Z,24.10
2018-05-31T17:35:39.614Z,24.00
2018-05-31T17:38:07.078Z,23.90
2018-05-31T17:40:34.529Z,23.90
2018-05-31T17:43:02.053Z,23.90
2018-05-31T17:45:29.470Z,23.80
2018-05-31T17:47:56.935Z,23.80
2018-05-31T17:50:24.386Z,23.70
2018-05-31T17:52:51.826Z,23.60
2018-05-31T17:55:19.351Z,23.60
2018-05-31T17:57:46.761Z,23.50
2018-05-31T18:00:14.223Z,23.40
2018-05-31T18:02:41.698Z,23.40
2018-05-31T18:05:09.151Z,23.40
2018-05-31T18:07:36.635Z,23.30
2018-05-31T18:10:04.089Z,23.30
2018-05-31T18:12:32.482Z,23.20
2018-05-31T18:14:59.929Z,23.20
2018-05-31T18:17:27.413Z,23.20
2018-05-31T18:19:54.881Z,23.10
2018-05-31T18:22:22.343Z,23.10
2018-05-31T18:24:49.882Z,23.00
2018-05-31T18:27:17.345Z,23.00
2018-05-31T18:29:44.793Z,23.00
2018-05-31T18:32:12.254Z,23.00
2018-05-31T18:34:39.740Z,22.90
2018-05-31T18:37:07.175Z,22.90
2018-05-31T18:39:34.662Z,22.90
2018-05-31T18:42:02.126Z,22.90
2018-05-31T18:44:29.570Z,22.80
2018-05-31T18:46:57.053Z,22.80
2018-05-31T18:49:24.502Z,22.80
2018-05-31T18:51:51.978Z,22.80
2018-05-31T18:54:19.530Z,22.80
2018-05-31T18:56:46.990Z,22.70
2018-05-31T18:59:14.454Z,22.70
2018-05-31T19:01:41.913Z,22.70
2018-05-31T19:04:09.362Z,22.60
2018-05-31T19:06:36.807Z,22.60
2018-05-31T19:09:04.283Z,22.50
2018-05-31T19:11:31.777Z,22.50
2018-05-31T19:13:59.232Z,22.40
2018-05-31T19:16:26.799Z,22.40
2018-05-31T19:19:00.074Z,22.40
2018-05-31T19:21:27.530Z,22.40
2018-05-31T19:23:54.996Z,22.40
2018-05-31T19:26:22.434Z,22.40
2018-05-31T19:28:50.763Z,22.30
2018-05-31T19:31:18.325Z,22.30
2018-05-31T19:33:46.520Z,22.30
2018-05-31T19:36:19.705Z,22.30
2018-05-31T19:38:47.149Z,22.30
2018-05-31T19:41:14.634Z,22.30
2018-05-31T19:43:47.902Z,22.30
2018-05-31T19:46:15.375Z,22.30
2018-05-31T19:48:42.854Z,22.30
2018-05-31T19:51:10.333Z,22.30
2018-05-31T19:53:43.412Z,22.20
2018-05-31T19:56:10.873Z,22.20
2018-05-31T19:58:43.922Z,22.20
2018-05-31T20:01:17.078Z,22.20
2018-05-31T20:03:44.532Z,22.20
2018-05-31T20:06:12.803Z,22.10
2018-05-31T20:08:40.265Z,22.10
2018-05-31T20:11:07.735Z,22.10
2018-05-31T20:13:35.187Z,22.00
2018-05-31T20:16:02.651Z,22.10
2018-05-31T20:18:30.125Z,22.10
2018-05-31T20:20:57.818Z,22.10
2018-05-31T20:23:26.146Z,22.10
2018-05-31T20:25:53.588Z,22.10
2018-05-31T20:28:21.047Z,22.10
2018-05-31T20:30:48.552Z,22.10
2018-05-31T20:33:15.998Z,22.10
2018-05-31T20:35:43.442Z,22.10
2018-05-31T20:38:10.910Z,22.10
2018-05-31T20:40:38.389Z,22.10
2018-05-31T20:43:05.838Z,22.10
2018-05-31T20:45:33.302Z,22.10
2018-05-31T20:48:00.776Z,22.10
2018-05-31T20:50:29.046Z,22.10
2018-05-31T20:52:56.495Z,22.00
2018-05-31T20:55:23.962Z,22.00
2018-05-31T20:57:51.416Z,22.00
2018-05-31T21:00:18.865Z,22.00
2018-05-31T21:02:46.368Z,22.10
2018-05-31T21:05:14.624Z,22.10
2018-05-31T21:07:42.086Z,22.10
2018-05-31T21:10:09.529Z,22.10
2018-05-31T21:12:37.011Z,22.00
2018-05-31T21:15:04.483Z,22.10
2018-05-31T21:17:31.962Z,22.00
2018-05-31T21:19:59.527Z,22.00
2018-05-31T21:22:26.970Z,22.00
2018-05-31T21:24:54.445Z,22.00
2018-05-31T21:27:21.900Z,22.00
2018-05-31T21:29:49.367Z,22.00
2018-05-31T21:32:16.937Z,22.00
2018-05-31T21:34:44.384Z,22.00
2018-05-31T21:37:11.848Z,21.90
2018-05-31T21:39:39.311Z,21.90
2018-05-31T21:42:06.767Z,21.80
2018-05-31T21:44:34.225Z,21.70
2018-05-31T21:47:01.690Z,21.60
2018-05-31T21:49:29.173Z,21.40
2018-05-31T21:51:56.650Z,20.60
2018-05-31T21:54:24.087Z,19.80
2018-05-31T21:56:51.563Z,19.20
2018-05-31T21:59:19.021Z,19.10
2018-05-31T22:01:46.588Z,19.00
2018-05-31T22:04:14.061Z,18.90
2018-05-31T22:06:41.526Z,18.90
2018-05-31T22:09:08.975Z,18.90
2018-05-31T22:11:36.495Z,18.70
2018-05-31T22:14:03.917Z,18.70
2018-05-31T22:16:31.382Z,18.80
2018-05-31T22:18:58.828Z,18.70
2018-05-31T22:21:26.279Z,18.60
2018-05-31T22:23:53.745Z,18.30
2018-05-31T22:26:21.206Z,18.10
2018-05-31T22:28:49.046Z,18.00
2018-05-31T22:31:16.506Z,17.80
2018-05-31T22:33:43.950Z,17.70
2018-05-31T22:36:12.202Z,17.70
2018-05-31T22:38:39.754Z,17.60
2018-05-31T22:41:07.215Z,17.70
2018-05-31T22:43:34.667Z,17.70
2018-05-31T22:46:02.191Z,17.80
2018-05-31T22:48:29.706Z,17.80
2018-05-31T22:50:57.150Z,17.90
2018-05-31T22:53:24.643Z,18.00
2018-05-31T22:55:52.083Z,17.90
2018-05-31T22:58:19.562Z,17.80
2018-05-31T23:00:47.121Z,17.90
2018-05-31T23:03:14.675Z,18.00
2018-05-31T23:05:42.149Z,18.00
2018-05-31T23:08:09.716Z,18.10
2018-05-31T23:10:37.167Z,18.20
2018-05-31T23:13:04.642Z,18.30
2018-05-31T23:15:32.102Z,18.30
2018-05-31T23:17:59.589Z,18.30
2018-05-31T23:20:27.055Z,18.30
2018-05-31T23:22:54.493Z,18.30
2018-05-31T23:25:21.946Z,18.20
2018-05-31T23:27:49.414Z,18.20
2018-05-31T23:30:16.855Z,18.20
2018-05-31T23:32:44.322Z,18.30
2018-05-31T23:35:11.788Z,18.40
2018-05-31T23:37:39.256Z,18.30
2018-05-31T23:40:06.727Z,18.30
2018-05-31T23:42:34.167Z,18.30
2018-05-31T23:45:01.662Z,18.30
2018-05-31T23:47:29.122Z,18.30
2018-05-31T23:49:56.564Z,18.30
2018-05-31T23:52:24.047Z,18.20
2018-05-31T23:55:01.401Z,18.30
2018-05-31T23:57:28.841Z,18.20
2018-05-31T23:59:57.049Z,18.20
